Time;durP1;ratioP1;P1;durP2;ratioP2;P2;SDS_P1;SDS_P2;PMS_P1;PMS_P2;Temp;Humidity;BMP_temperature;BMP_pressure;BME280_temperature;BME280_humidity;BME280_pressure;Samples;Min_cycle;Max_cycle;Signal;HPM_P1;HPM_P2
2022/09/06 00:00:06;;;;;;;7.37;4.60;;;26.40;49.30;;;;;;5004746;28;20607;-48
2022/09/06 00:02:33;;;;;;;3.70;3.43;;;26.40;49.20;;;;;;5002185;28;20248;-47
2022/09/06 00:04:58;;;;;;;6.00;3.80;;;26.30;49.10;;;;;;5003098;28;20451;-47
2022/09/06 00:07:24;;;;;;;4.27;3.97;;;26.30;49.10;;;;;;5004261;28;20795;-47
2022/09/06 00:09:50;;;;;;;4.60;4.00;;;26.20;49.30;;;;;;5002490;28;20194;-51
2022/09/06 00:12:15;;;;;;;4.03;3.57;;;26.20;49.40;;;;;;5004349;28;20256;-47
2022/09/06 00:14:41;;;;;;;4.40;4.00;;;26.20;49.10;;;;;;5007699;28;20210;-47
2022/09/06 00:17:07;;;;;;;4.37;3.97;;;26.20;49.30;;;;;;5003846;28;20272;-48
2022/09/06 00:19:32;;;;;;;5.37;3.70;;;26.10;49.40;;;;;;5005105;28;20967;-48
2022/09/06 00:21:58;;;;;;;3.80;3.37;;;26.10;49.40;;;;;;5002675;28;20842;-48
2022/09/06 00:24:24;;;;;;;5.10;3.53;;;26.20;49.30;;;;;;5001834;28;20193;-47
2022/09/06 00:26:49;;;;;;;4.23;3.50;;;26.20;49.20;;;;;;5006920;28;20190;-47
2022/09/06 00:29:15;;;;;;;4.50;4.20;;;26.20;49.20;;;;;;5007411;28;20200;-52
2022/09/06 00:31:40;;;;;;;4.90;3.43;;;26.20;49.10;;;;;;5006536;28;20190;-49
2022/09/06 00:34:06;;;;;;;4.33;4.03;;;26.00;49.50;;;;;;5014322;28;20569;-48
2022/09/06 00:36:31;;;;;;;4.20;3.90;;;26.00;49.60;;;;;;5000326;28;20203;-48
2022/09/06 00:38:57;;;;;;;4.07;3.70;;;26.00;49.60;;;;;;5006349;28;20209;-47
2022/09/06 00:41:23;;;;;;;5.10;4.70;;;26.00;49.70;;;;;;5003598;28;20712;-48
2022/09/06 00:43:48;;;;;;;5.63;4.10;;;26.00;49.80;;;;;;5002912;28;20234;-48
2022/09/06 00:46:21;;;;;;;3.90;3.50;;;25.90;49.90;;;;;;5003495;28;20936;-48
2022/09/06 00:48:52;;;;;;;4.60;4.30;;;25.90;50.10;;;;;;5007281;28;20244;-47
2022/09/06 00:51:20;;;;;;;4.43;4.10;;;25.90;50.20;;;;;;5009702;28;21106;-51
2022/09/06 00:53:46;;;;;;;3.97;3.67;;;25.90;50.10;;;;;;5002217;28;20548;-47
2022/09/06 00:56:12;;;;;;;4.20;3.80;;;25.80;50.10;;;;;;5006288;28;20528;-48
2022/09/06 00:58:38;;;;;;;3.90;3.60;;;25.70;50.20;;;;;;5004618;28;20606;-47
2022/09/06 01:01:05;;;;;;;4.73;3.77;;;25.70;50.20;;;;;;5003294;28;20495;-47
2022/09/06 01:03:31;;;;;;;7.80;4.20;;;25.80;50.20;;;;;;5003653;28;20205;-47
2022/09/06 01:06:19;;;;;;;4.03;3.63;;;25.60;50.60;;;;;;5005303;28;20471;-47
2022/09/06 01:09:03;;;;;;;8.50;4.43;;;25.40;51.10;;;;;;5008773;28;20449;-49
2022/09/06 01:11:40;;;;;;;4.50;3.93;;;25.40;51.10;;;;;;5003705;28;20448;-48
2022/09/06 01:14:23;;;;;;;5.60;3.53;;;25.40;50.90;;;;;;5009444;28;20815;-47
2022/09/06 01:17:26;;;;;;;5.40;3.80;;;25.40;51.00;;;;;;5006195;28;20445;-47
2022/09/06 01:20:35;;;;;;;4.83;3.80;;;25.10;51.70;;;;;;5004361;28;20487;-49
2022/09/06 01:23:29;;;;;;;5.67;4.47;;;25.20;51.30;;;;;;4991999;28;20449;-47
2022/09/06 01:25:58;;;;;;;5.10;3.73;;;25.10;51.70;;;;;;4997274;28;20506;-47
2022/09/06 01:28:38;;;;;;;4.47;4.07;;;24.80;52.20;;;;;;5003569;28;20453;-47
2022/09/06 01:31:03;;;;;;;4.60;4.00;;;24.60;52.90;;;;;;4993495;28;20453;-48
2022/09/06 01:33:39;;;;;;;4.40;3.73;;;24.50;53.30;;;;;;5007819;28;20452;-46
2022/09/06 01:36:09;;;;;;;8.70;4.20;;;24.40;53.20;;;;;;5002750;28;20260;-47
2022/09/06 01:38:35;;;;;;;4.97;4.57;;;24.50;53.20;;;;;;5000774;28;21355;-47
2022/09/06 01:41:01;;;;;;;4.00;3.70;;;24.70;53.00;;;;;;5006901;28;20484;-47
2022/09/06 01:43:31;;;;;;;4.37;4.00;;;24.70;52.90;;;;;;5004974;28;20477;-48
2022/09/06 01:46:26;;;;;;;3.90;3.60;;;24.80;52.70;;;;;;5002059;28;20218;-51
2022/09/06 01:49:09;;;;;;;5.17;4.50;;;24.80;52.70;;;;;;5003576;28;20518;-47
2022/09/06 01:52:06;;;;;;;4.40;4.00;;;24.80;52.50;;;;;;5007465;28;20445;-47
2022/09/06 01:54:50;;;;;;;4.37;3.97;;;24.80;52.60;;;;;;5006484;28;20550;-49
2022/09/06 01:57:25;;;;;;;5.07;4.00;;;24.50;53.20;;;;;;5006475;28;20446;-47
2022/09/06 02:00:10;;;;;;;5.33;3.90;;;23.90;54.70;;;;;;5006562;28;20484;-47
2022/09/06 02:03:01;;;;;;;4.40;3.97;;;23.90;55.10;;;;;;5005543;28;20536;-48
2022/09/06 02:05:42;;;;;;;4.10;3.70;;;23.90;54.80;;;;;;4999201;28;20457;-47
2022/09/06 02:08:13;;;;;;;4.97;4.53;;;24.10;54.50;;;;;;4994823;28;20456;-48
2022/09/06 02:10:44;;;;;;;4.83;3.87;;;24.20;54.00;;;;;;5008745;28;20421;-48
2022/09/06 02:13:13;;;;;;;5.10;3.43;;;24.30;53.60;;;;;;5005219;28;20960;-47
2022/09/06 02:15:49;;;;;;;6.00;4.07;;;24.50;53.30;;;;;;5004236;28;20452;-49
2022/09/06 02:18:20;;;;;;;4.60;4.20;;;24.50;53.10;;;;;;5005097;28;20854;-47
2022/09/06 02:20:51;;;;;;;5.70;4.10;;;24.60;53.00;;;;;;5001590;28;20495;-49
2022/09/06 02:23:19;;;;;;;5.93;4.90;;;24.70;53.00;;;;;;5006905;28;20495;-49
2022/09/06 02:25:53;;;;;;;4.67;4.37;;;24.70;52.70;;;;;;5004586;28;20476;-48
2022/09/06 02:28:19;;;;;;;4.30;3.90;;;24.70;52.70;;;;;;5006856;28;20453;-50
2022/09/06 02:30:52;;;;;;;5.30;4.17;;;24.60;52.70;;;;;;5001713;28;20555;-47
2022/09/06 02:33:20;;;;;;;4.30;3.90;;;24.30;53.40;;;;;;5009494;28;20954;-51
2022/09/06 02:35:49;;;;;;;4.00;3.70;;;23.80;54.70;;;;;;4997756;28;20847;-52
2022/09/06 02:38:15;;;;;;;4.57;4.17;;;23.80;55.10;;;;;;5004922;28;20459;-51
2022/09/06 02:40:43;;;;;;;5.83;4.17;;;23.90;55.00;;;;;;5001941;28;20886;-49
2022/09/06 02:43:08;;;;;;;4.33;3.80;;;24.00;54.80;;;;;;5007214;28;20476;-49
2022/09/06 02:45:35;;;;;;;4.83;3.77;;;24.10;54.70;;;;;;5004997;28;20507;-46
2022/09/06 02:48:00;;;;;;;3.83;3.53;;;24.30;54.50;;;;;;5012303;28;20202;-51
2022/09/06 02:50:26;;;;;;;6.17;4.47;;;24.30;54.20;;;;;;5001951;28;21137;-47
2022/09/06 02:53:09;;;;;;;4.63;3.67;;;24.40;54.00;;;;;;4994447;28;20195;-47
2022/09/06 02:55:36;;;;;;;4.67;4.27;;;24.50;53.80;;;;;;5007435;28;20224;-48
2022/09/06 02:58:02;;;;;;;4.10;3.80;;;24.60;53.80;;;;;;4993903;28;20452;-47
2022/09/06 03:00:28;;;;;;;3.73;3.43;;;24.70;53.90;;;;;;4996718;28;20525;-48
2022/09/06 03:02:55;;;;;;;10.20;3.83;;;24.60;54.00;;;;;;5004784;28;20453;-51
2022/09/06 03:05:22;;;;;;;3.83;3.53;;;24.60;54.10;;;;;;4995898;28;20464;-48
2022/09/06 03:07:48;;;;;;;4.33;3.93;;;24.60;54.90;;;;;;4994880;28;20452;-48
2022/09/06 03:10:14;;;;;;;4.73;4.20;;;24.70;55.30;;;;;;5005585;28;20857;-52
2022/09/06 03:12:42;;;;;;;4.30;3.97;;;24.80;55.30;;;;;;5007202;28;20449;-48
2022/09/06 03:15:08;;;;;;;5.30;4.80;;;24.80;55.80;;;;;;5004021;28;20337;-52
2022/09/06 03:17:34;;;;;;;4.87;3.73;;;24.80;55.80;;;;;;5005465;28;20555;-48
2022/09/06 03:19:59;;;;;;;5.10;4.60;;;24.80;56.60;;;;;;5004509;28;20914;-52
2022/09/06 03:22:25;;;;;;;4.40;4.00;;;24.60;56.70;;;;;;5006449;28;20190;-49
2022/09/06 03:24:51;;;;;;;6.57;4.50;;;24.20;57.50;;;;;;5005770;28;20203;-48
2022/09/06 03:27:16;;;;;;;4.70;4.17;;;23.90;58.20;;;;;;5004076;28;20194;-49
2022/09/06 03:29:42;;;;;;;5.40;5.00;;;23.80;58.70;;;;;;4991962;28;20213;-48
2022/09/06 03:32:07;;;;;;;4.57;4.13;;;23.90;58.70;;;;;;5001115;28;20187;-49
2022/09/06 03:34:33;;;;;;;5.60;5.10;;;24.00;58.50;;;;;;4993408;28;20685;-48
2022/09/06 03:36:58;;;;;;;5.63;5.00;;;24.10;58.70;;;;;;5007442;28;20198;-49
2022/09/06 03:39:24;;;;;;;4.13;3.73;;;24.20;59.00;;;;;;5006586;28;20229;-48
2022/09/06 03:41:50;;;;;;;5.00;4.50;;;24.10;58.80;;;;;;5007403;28;20233;-51
2022/09/06 03:44:15;;;;;;;5.53;4.73;;;24.10;58.90;;;;;;5008489;28;21365;-49
2022/09/06 03:46:41;;;;;;;5.00;4.60;;;24.20;59.00;;;;;;5006518;28;20205;-48
2022/09/06 03:49:09;;;;;;;5.50;4.97;;;24.20;59.10;;;;;;5005606;28;20205;-49
2022/09/06 03:51:35;;;;;;;5.50;4.60;;;24.30;58.90;;;;;;5006723;28;20201;-52
2022/09/06 03:54:00;;;;;;;5.57;5.07;;;24.30;58.50;;;;;;4999851;28;20575;-48
2022/09/06 03:56:26;;;;;;;5.80;4.40;;;24.40;58.80;;;;;;4996658;28;20473;-51
2022/09/06 03:58:52;;;;;;;4.37;3.97;;;24.40;58.30;;;;;;5008556;28;20194;-50
2022/09/06 04:01:17;;;;;;;5.50;5.00;;;24.50;57.90;;;;;;5007517;28;20284;-52
2022/09/06 04:03:43;;;;;;;4.40;4.10;;;24.60;58.00;;;;;;5008142;28;20289;-48
2022/09/06 04:06:09;;;;;;;3.87;3.57;;;24.60;58.10;;;;;;5006314;28;20190;-49
2022/09/06 04:08:35;;;;;;;4.90;4.40;;;24.60;58.00;;;;;;5005994;28;20563;-49
2022/09/06 04:11:01;;;;;;;4.27;3.87;;;24.70;57.70;;;;;;5006519;28;20186;-50
2022/09/06 04:13:28;;;;;;;4.10;3.80;;;24.80;57.70;;;;;;5006485;28;20468;-49
2022/09/06 04:15:53;;;;;;;4.40;4.10;;;24.90;57.20;;;;;;5006016;28;21093;-52
2022/09/06 04:18:20;;;;;;;4.20;3.80;;;24.90;57.00;;;;;;5005792;28;20441;-50
2022/09/06 04:20:51;;;;;;;4.93;4.17;;;24.90;56.70;;;;;;5008133;28;20597;-51
2022/09/06 04:23:18;;;;;;;4.80;4.40;;;25.00;56.70;;;;;;5007071;28;20506;-48
2022/09/06 04:25:51;;;;;;;5.77;5.27;;;25.10;56.60;;;;;;5006126;28;20507;-49
2022/09/06 04:28:18;;;;;;;4.57;4.17;;;25.10;56.60;;;;;;5005419;28;20441;-50
2022/09/06 04:30:44;;;;;;;5.17;4.63;;;25.10;56.60;;;;;;5028205;28;20566;-52
2022/09/06 04:33:10;;;;;;;6.30;4.00;;;25.20;56.70;;;;;;5032528;28;20431;-49
2022/09/06 04:35:36;;;;;;;5.53;4.10;;;25.10;56.90;;;;;;5016101;28;20452;-52
2022/09/06 04:38:03;;;;;;;5.07;4.57;;;25.10;56.80;;;;;;5005600;28;20194;-48
2022/09/06 04:40:28;;;;;;;7.40;5.30;;;25.20;56.70;;;;;;5002280;28;20229;-52
2022/09/06 04:42:54;;;;;;;5.33;4.87;;;25.20;56.70;;;;;;5009102;28;20464;-49
2022/09/06 04:45:20;;;;;;;4.37;3.93;;;25.20;57.00;;;;;;5009357;28;20315;-51
2022/09/06 04:47:45;;;;;;;6.63;5.00;;;25.20;56.90;;;;;;5009741;28;20248;-51
2022/09/06 04:50:11;;;;;;;7.23;4.50;;;25.10;56.70;;;;;;5006998;28;20213;-49
2022/09/06 04:52:36;;;;;;;5.83;4.23;;;25.20;56.80;;;;;;5009171;28;20701;-51
2022/09/06 04:55:03;;;;;;;6.27;4.90;;;25.10;57.10;;;;;;5004487;28;20201;-48
2022/09/06 04:57:28;;;;;;;5.57;4.90;;;25.20;57.00;;;;;;4998676;28;20230;-50
2022/09/06 04:59:54;;;;;;;5.13;4.63;;;25.20;57.20;;;;;;5004670;28;20917;-50
2022/09/06 05:02:20;;;;;;;7.30;4.47;;;25.20;57.30;;;;;;4998973;28;20190;-49
2022/09/06 05:04:45;;;;;;;6.03;5.43;;;25.10;57.20;;;;;;5007262;28;20688;-50
2022/09/06 05:07:11;;;;;;;4.60;4.30;;;25.10;57.20;;;;;;5008418;28;20197;-50
2022/09/06 05:09:36;;;;;;;5.67;4.03;;;25.00;57.80;;;;;;4997522;28;20309;-48
2022/09/06 05:12:02;;;;;;;9.40;4.20;;;25.00;57.60;;;;;;5007060;28;20201;-48
2022/09/06 05:14:28;;;;;;;5.63;4.87;;;24.90;57.40;;;;;;5005724;28;20274;-50
2022/09/06 05:16:54;;;;;;;6.20;4.90;;;25.00;57.20;;;;;;5005098;28;20190;-49
2022/09/06 05:19:20;;;;;;;6.13;5.07;;;25.20;56.90;;;;;;5000188;28;21057;-52
2022/09/06 05:21:45;;;;;;;5.67;5.27;;;25.20;56.90;;;;;;5000866;28;20445;-47
2022/09/06 05:24:11;;;;;;;5.80;5.30;;;25.30;56.90;;;;;;5009389;28;20445;-49
2022/09/06 05:26:37;;;;;;;5.83;5.33;;;25.30;57.10;;;;;;5001661;28;20238;-47
2022/09/06 05:29:03;;;;;;;6.13;5.53;;;25.30;56.60;;;;;;5000528;28;20234;-48
2022/09/06 05:31:31;;;;;;;6.87;6.00;;;25.00;58.30;;;;;;5004940;28;20228;-47
2022/09/06 05:33:57;;;;;;;9.60;5.00;;;24.50;59.50;;;;;;5001878;28;20228;-47
2022/09/06 05:36:25;;;;;;;5.97;4.93;;;24.30;60.40;;;;;;5001902;28;20441;-48
2022/09/06 05:38:52;;;;;;;7.40;5.80;;;24.50;60.20;;;;;;5006670;28;20481;-48
2022/09/06 05:41:17;;;;;;;5.63;5.13;;;24.50;59.90;;;;;;4997086;28;20497;-47
2022/09/06 05:43:44;;;;;;;8.27;5.10;;;24.60;59.50;;;;;;5006413;28;21202;-47
2022/09/06 05:46:10;;;;;;;5.70;5.20;;;24.70;59.50;;;;;;5006716;28;20210;-47
2022/09/06 05:48:35;;;;;;;5.40;4.90;;;24.70;59.20;;;;;;5008471;28;20448;-47
2022/09/06 05:51:03;;;;;;;6.03;5.40;;;24.80;59.10;;;;;;4999639;28;20507;-47
2022/09/06 05:53:37;;;;;;;5.87;5.33;;;25.00;58.90;;;;;;5007355;28;20191;-48
2022/09/06 05:56:04;;;;;;;6.37;5.77;;;25.20;58.50;;;;;;5007991;28;20464;-50
2022/09/06 05:58:30;;;;;;;5.10;4.60;;;25.20;58.50;;;;;;5005111;28;20448;-48
2022/09/06 06:01:18;;;;;;;5.47;5.07;;;25.30;58.40;;;;;;5003487;28;20489;-47
2022/09/06 06:04:10;;;;;;;6.60;5.43;;;25.40;58.00;;;;;;5007916;28;20205;-48
2022/09/06 06:06:36;;;;;;;5.63;5.10;;;25.50;57.80;;;;;;5003975;28;20448;-47
2022/09/06 06:09:02;;;;;;;5.57;5.03;;;25.60;57.70;;;;;;5007026;28;20441;-46
2022/09/06 06:11:29;;;;;;;6.43;5.63;;;25.60;57.40;;;;;;5008181;28;20201;-47
2022/09/06 06:13:55;;;;;;;5.23;4.60;;;25.70;57.30;;;;;;5007491;28;20575;-50
2022/09/06 06:16:22;;;;;;;5.70;4.97;;;25.80;57.30;;;;;;5010969;28;20455;-46
2022/09/06 06:18:48;;;;;;;5.47;5.07;;;25.90;57.10;;;;;;5009730;28;20201;-46
2022/09/06 06:21:15;;;;;;;5.23;4.83;;;25.90;56.80;;;;;;5002583;28;20490;-46
2022/09/06 06:23:42;;;;;;;6.80;4.10;;;25.80;57.20;;;;;;5005919;28;20503;-45
2022/09/06 06:26:08;;;;;;;6.60;5.00;;;25.90;57.10;;;;;;5009867;28;20448;-46
2022/09/06 06:28:35;;;;;;;4.03;3.73;;;25.90;56.90;;;;;;5010609;28;20452;-45
2022/09/06 06:31:07;;;;;;;5.47;4.33;;;25.90;56.70;;;;;;5010297;28;20463;-46
2022/09/06 06:33:32;;;;;;;6.20;4.10;;;26.10;56.40;;;;;;5007429;28;20441;-47
2022/09/06 06:36:24;;;;;;;5.57;4.63;;;26.10;56.10;;;;;;4997192;28;21003;-46
2022/09/06 06:38:54;;;;;;;4.80;4.30;;;26.20;56.10;;;;;;4995712;28;20241;-45
2022/09/06 06:41:22;;;;;;;4.10;3.80;;;26.20;56.50;;;;;;5002177;28;20489;-46
2022/09/06 06:43:54;;;;;;;6.17;4.47;;;26.20;56.40;;;;;;4995007;28;20468;-50
2022/09/06 06:46:22;;;;;;;5.47;4.97;;;26.10;56.90;;;;;;5000787;28;20448;-45
2022/09/06 06:48:47;;;;;;;6.73;4.87;;;26.00;57.90;;;;;;5006413;28;20464;-47
2022/09/06 06:51:18;;;;;;;4.57;4.17;;;25.40;59.20;;;;;;5006447;28;20459;-50
2022/09/06 06:53:48;;;;;;;4.87;4.37;;;25.40;59.30;;;;;;5008309;28;20198;-48
2022/09/06 06:56:21;;;;;;;6.23;4.90;;;25.60;58.80;;;;;;5003373;28;20445;-49
2022/09/06 06:58:49;;;;;;;6.07;5.13;;;25.80;58.20;;;;;;5007365;28;20445;-49
2022/09/06 07:01:15;;;;;;;6.53;5.10;;;25.90;58.00;;;;;;5003632;28;21013;-46
2022/09/06 07:03:41;;;;;;;5.80;5.23;;;25.90;58.00;;;;;;5008484;28;20468;-49
2022/09/06 07:06:07;;;;;;;6.23;4.10;;;26.00;57.60;;;;;;4998635;28;20436;-46
2022/09/06 07:08:33;;;;;;;5.33;4.53;;;26.00;57.70;;;;;;5007929;28;20273;-46
2022/09/06 07:10:59;;;;;;;4.53;4.13;;;26.10;58.20;;;;;;4997978;28;20553;-50
2022/09/06 07:13:25;;;;;;;8.40;5.53;;;26.10;58.10;;;;;;5006235;28;20445;-46
2022/09/06 07:15:50;;;;;;;7.53;5.30;;;26.00;58.70;;;;;;5002587;28;20290;-46
2022/09/06 07:18:17;;;;;;;5.40;4.90;;;26.10;58.60;;;;;;5007221;28;20645;-48
2022/09/06 07:20:42;;;;;;;9.10;5.30;;;26.40;58.70;;;;;;5004274;28;22377;-45
2022/09/06 07:23:08;;;;;;;4.43;4.10;;;26.60;58.70;;;;;;4992412;28;20461;-46
2022/09/06 07:25:34;;;;;;;4.50;4.10;;;26.90;57.20;;;;;;4999874;28;20675;-45
2022/09/06 07:28:07;;;;;;;4.93;4.43;;;26.80;56.10;;;;;;5008600;28;20194;-49
2022/09/06 07:30:35;;;;;;;5.93;4.20;;;26.60;56.90;;;;;;5005700;28;20198;-45
2022/09/06 07:33:04;;;;;;;4.57;4.17;;;26.50;57.40;;;;;;5001867;28;20445;-48
2022/09/06 07:35:30;;;;;;;6.33;4.00;;;26.60;57.20;;;;;;5013680;28;20529;-46
2022/09/06 07:37:58;;;;;;;4.93;3.93;;;26.60;56.40;;;;;;5015006;28;20441;-46
2022/09/06 07:40:25;;;;;;;5.50;4.33;;;26.30;57.50;;;;;;5006598;28;20484;-47
2022/09/06 07:42:52;;;;;;;4.50;4.10;;;26.40;57.00;;;;;;5005963;28;20983;-45
2022/09/06 07:45:18;;;;;;;4.67;4.17;;;26.30;57.60;;;;;;4999707;28;20448;-45
2022/09/06 07:47:44;;;;;;;5.00;4.50;;;26.50;57.00;;;;;;5002615;28;20998;-46
2022/09/06 07:50:10;;;;;;;4.60;4.20;;;26.70;56.30;;;;;;4996909;28;20453;-48
2022/09/06 07:52:36;;;;;;;4.53;4.00;;;26.90;56.40;;;;;;4994984;28;20483;-46
2022/09/06 07:55:01;;;;;;;4.00;3.70;;;27.10;56.00;;;;;;5002841;28;20472;-46
2022/09/06 07:57:27;;;;;;;4.13;3.80;;;27.30;55.70;;;;;;5008794;28;20724;-48
2022/09/06 07:59:52;;;;;;;4.40;3.90;;;27.20;55.70;;;;;;5002006;28;20570;-45
2022/09/06 08:02:18;;;;;;;6.63;4.90;;;27.20;55.20;;;;;;5006852;28;20209;-46
2022/09/06 08:04:44;;;;;;;4.80;4.30;;;27.40;55.30;;;;;;5007639;28;20676;-46
2022/09/06 08:07:09;;;;;;;5.70;3.80;;;27.30;55.20;;;;;;5008678;28;20194;-46
2022/09/06 08:09:35;;;;;;;4.67;3.60;;;27.60;55.20;;;;;;5010898;28;20213;-45
2022/09/06 08:12:05;;;;;;;4.60;4.10;;;27.80;54.50;;;;;;5007941;28;20209;-45
2022/09/06 08:14:32;;;;;;;4.23;3.93;;;27.70;54.10;;;;;;5012160;28;20638;-46
2022/09/06 08:16:57;;;;;;;4.97;3.80;;;27.80;54.20;;;;;;5008664;28;20588;-46
2022/09/06 08:19:23;;;;;;;4.30;4.00;;;27.90;53.40;;;;;;5008855;28;20991;-45
2022/09/06 08:21:49;;;;;;;4.30;3.67;;;27.80;53.70;;;;;;5011688;28;20283;-48
2022/09/06 08:24:14;;;;;;;4.10;3.80;;;28.00;53.60;;;;;;5009722;28;20301;-46
2022/09/06 08:26:43;;;;;;;3.83;3.43;;;28.30;53.20;;;;;;5012669;28;20206;-47
2022/09/06 08:29:09;;;;;;;4.30;3.90;;;28.40;52.80;;;;;;5006730;28;20571;-46
2022/09/06 08:31:38;;;;;;;3.63;3.30;;;28.50;52.40;;;;;;5005235;28;20873;-46
2022/09/06 08:34:04;;;;;;;5.57;3.63;;;28.60;51.60;;;;;;5008641;28;20887;-45
2022/09/06 08:36:30;;;;;;;4.07;3.80;;;28.60;51.90;;;;;;5007933;28;20460;-47
2022/09/06 08:38:56;;;;;;;4.03;3.73;;;28.60;52.00;;;;;;5006695;28;20209;-46
2022/09/06 08:41:26;;;;;;;5.33;4.27;;;28.70;52.40;;;;;;5009168;28;20488;-47
2022/09/06 08:44:14;;;;;;;5.10;4.07;;;28.70;51.80;;;;;;5009924;28;20815;-47
2022/09/06 08:46:49;;;;;;;4.47;4.07;;;28.90;51.60;;;;;;5005845;28;21615;-46
2022/09/06 08:49:14;;;;;;;4.50;4.10;;;29.00;49.70;;;;;;5005622;28;20452;-46
2022/09/06 08:52:14;;;;;;;5.53;3.70;;;29.10;49.10;;;;;;5006898;28;20459;-48
2022/09/06 08:54:45;;;;;;;3.90;3.60;;;29.30;48.40;;;;;;5011780;28;20198;-47
2022/09/06 08:57:20;;;;;;;4.20;3.80;;;29.30;48.30;;;;;;5009670;28;20892;-47
2022/09/06 08:59:45;;;;;;;6.70;4.10;;;29.50;48.20;;;;;;5008652;28;20488;-47
2022/09/06 09:02:20;;;;;;;6.00;3.80;;;29.70;47.80;;;;;;5007619;28;20979;-47
2022/09/06 09:04:55;;;;;;;4.83;3.97;;;29.80;47.30;;;;;;5010668;28;20252;-46
2022/09/06 09:07:44;;;;;;;3.90;3.50;;;29.90;47.30;;;;;;5004366;28;20453;-51
2022/09/06 09:10:39;;;;;;;3.90;3.40;;;29.90;46.60;;;;;;4997019;28;20456;-49
2022/09/06 09:13:07;;;;;;;4.23;3.83;;;30.10;46.80;;;;;;5006807;28;20952;-47
2022/09/06 09:15:36;;;;;;;4.40;3.30;;;30.20;46.40;;;;;;5002524;28;20810;-51
2022/09/06 09:18:02;;;;;;;5.67;3.87;;;30.30;46.00;;;;;;5003974;28;20441;-46
2022/09/06 09:20:28;;;;;;;5.10;4.13;;;30.30;45.60;;;;;;5007265;28;20484;-49
2022/09/06 09:22:54;;;;;;;4.87;4.13;;;30.40;45.90;;;;;;5009838;28;20455;-46
2022/09/06 09:25:23;;;;;;;6.00;3.90;;;30.50;46.00;;;;;;5009105;28;20190;-49
2022/09/06 09:27:58;;;;;;;4.70;3.90;;;30.60;45.90;;;;;;5003864;28;20472;-51
2022/09/06 09:30:25;;;;;;;4.17;3.77;;;30.60;45.90;;;;;;5009301;28;20439;-48
2022/09/06 09:32:51;;;;;;;4.80;3.47;;;30.70;46.20;;;;;;5004674;28;20456;-47
2022/09/06 09:35:26;;;;;;;4.70;4.00;;;30.70;45.60;;;;;;5003895;28;20953;-47
2022/09/06 09:38:09;;;;;;;4.63;3.50;;;30.80;45.70;;;;;;5022813;28;20450;-47
2022/09/06 09:40:50;;;;;;;5.23;3.60;;;31.00;45.30;;;;;;5008797;28;20524;-48
2022/09/06 09:43:28;;;;;;;6.93;4.17;;;31.00;45.40;;;;;;5010983;28;20484;-48
2022/09/06 09:46:23;;;;;;;5.83;4.00;;;31.10;45.10;;;;;;5009874;28;20535;-48
2022/09/06 09:49:07;;;;;;;7.57;4.23;;;31.10;44.90;;;;;;5010317;28;21373;-46
2022/09/06 09:51:41;;;;;;;7.40;4.17;;;31.30;45.10;;;;;;5011062;28;20929;-48
2022/09/06 09:54:10;;;;;;;4.73;4.37;;;31.40;44.90;;;;;;5008405;28;20441;-47
2022/09/06 09:56:43;;;;;;;4.37;3.97;;;31.50;44.80;;;;;;5001067;28;20442;-50
2022/09/06 09:59:36;;;;;;;4.60;4.23;;;31.50;45.60;;;;;;5001105;28;20456;-47
2022/09/06 10:02:18;;;;;;;6.30;4.60;;;31.60;45.10;;;;;;5007661;28;20481;-49
2022/09/06 10:04:48;;;;;;;8.63;4.23;;;31.80;45.30;;;;;;5008647;28;20452;-50
2022/09/06 10:07:16;;;;;;;5.27;3.80;;;32.00;44.90;;;;;;5015115;28;20817;-51
2022/09/06 10:09:45;;;;;;;4.67;4.07;;;32.20;44.10;;;;;;5014688;28;20445;-50
2022/09/06 10:12:27;;;;;;;8.30;4.00;;;32.30;44.10;;;;;;5006753;28;20791;-51
2022/09/06 10:14:53;;;;;;;4.83;3.97;;;32.50;44.00;;;;;;5010174;28;20508;-51
2022/09/06 10:17:31;;;;;;;4.40;3.90;;;32.50;43.40;;;;;;5005586;28;20520;-51
2022/09/06 10:20:10;;;;;;;6.00;4.27;;;32.60;43.60;;;;;;5000572;28;20229;-49
2022/09/06 10:22:55;;;;;;;4.97;3.87;;;32.70;43.70;;;;;;5008268;28;20504;-51
2022/09/06 10:25:37;;;;;;;5.80;3.90;;;33.00;43.10;;;;;;5006654;28;20813;-51
2022/09/06 10:28:33;;;;;;;5.87;4.07;;;33.10;42.80;;;;;;5003462;28;20820;-51
2022/09/06 10:31:36;;;;;;;3.93;3.40;;;33.30;42.10;;;;;;5003284;28;20450;-52
2022/09/06 10:34:20;;;;;;;5.90;3.73;;;33.50;42.40;;;;;;5005594;28;20484;-51
2022/09/06 10:36:57;;;;;;;5.13;4.00;;;33.70;41.60;;;;;;5003233;28;20464;-48
2022/09/06 10:39:32;;;;;;;7.00;4.07;;;33.90;40.60;;;;;;5001279;28;20456;-48
2022/09/06 10:42:18;;;;;;;4.93;3.83;;;34.00;40.70;;;;;;5007493;28;20476;-51
2022/09/06 10:45:14;;;;;;;6.20;4.40;;;34.10;40.20;;;;;;5007448;28;20492;-48
2022/09/06 10:48:17;;;;;;;4.23;3.73;;;34.10;40.30;;;;;;5013927;28;20511;-51
2022/09/06 10:51:06;;;;;;;4.73;3.43;;;34.10;40.30;;;;;;4986606;28;20453;-47
2022/09/06 10:53:46;;;;;;;4.23;3.90;;;34.10;40.60;;;;;;4994786;28;20457;-51
2022/09/06 10:56:28;;;;;;;6.97;3.90;;;34.00;40.60;;;;;;5003721;28;20457;-52
2022/09/06 10:59:24;;;;;;;7.67;4.20;;;33.50;40.90;;;;;;5001505;28;20524;-51
2022/09/06 11:01:52;;;;;;;9.40;3.93;;;33.50;41.00;;;;;;5005682;28;20546;-49
2022/09/06 11:04:31;;;;;;;5.83;4.10;;;33.50;41.10;;;;;;5009581;28;20477;-48
2022/09/06 11:07:03;;;;;;;5.87;3.50;;;33.70;40.60;;;;;;5000095;28;20459;-47
2022/09/06 11:09:35;;;;;;;6.77;4.27;;;33.80;40.40;;;;;;5016023;28;20463;-50
2022/09/06 11:12:35;;;;;;;8.80;4.13;;;33.10;41.40;;;;;;4998181;28;20508;-48
2022/09/06 11:15:03;;;;;;;4.93;3.77;;;33.10;41.60;;;;;;5006024;28;20453;-46
2022/09/06 11:17:39;;;;;;;5.70;3.60;;;32.90;41.90;;;;;;5008494;28;20491;-47
2022/09/06 11:20:23;;;;;;;8.07;4.63;;;32.50;42.70;;;;;;5004929;28;20487;-47
2022/09/06 11:22:57;;;;;;;5.90;3.80;;;32.60;43.00;;;;;;5015673;28;20489;-46
2022/09/06 11:25:38;;;;;;;9.67;3.67;;;32.90;42.40;;;;;;4999784;28;20490;-47
2022/09/06 11:28:07;;;;;;;8.60;4.30;;;33.20;41.40;;;;;;5004014;28;20463;-47
2022/09/06 11:30:33;;;;;;;7.50;3.80;;;33.30;40.90;;;;;;5003484;28;20934;-47
2022/09/06 11:33:09;;;;;;;7.70;4.00;;;33.50;40.90;;;;;;5003148;28;20438;-48
2022/09/06 11:35:36;;;;;;;8.30;4.27;;;33.50;40.50;;;;;;5006177;28;20483;-48
2022/09/06 11:38:14;;;;;;;6.00;3.63;;;33.60;40.60;;;;;;5003064;28;20841;-47
2022/09/06 11:40:43;;;;;;;10.27;4.37;;;33.60;40.80;;;;;;5010228;28;20574;-46
2022/09/06 11:43:37;;;;;;;8.43;3.77;;;33.50;41.00;;;;;;5011718;28;20496;-46
2022/09/06 11:46:02;;;;;;;6.27;3.60;;;33.70;41.10;;;;;;5002971;28;21076;-47
2022/09/06 11:48:33;;;;;;;6.70;3.87;;;33.70;40.80;;;;;;5008472;28;20448;-48
2022/09/06 11:51:00;;;;;;;6.80;4.10;;;33.90;40.10;;;;;;5009105;28;20194;-46
2022/09/06 11:53:29;;;;;;;10.40;4.30;;;33.70;40.70;;;;;;5000958;28;20452;-45
2022/09/06 11:56:02;;;;;;;11.33;5.30;;;33.80;40.60;;;;;;5012413;28;20535;-49
2022/09/06 11:58:38;;;;;;;7.57;4.13;;;34.10;40.30;;;;;;5010164;28;20453;-48
2022/09/06 12:01:24;;;;;;;5.03;4.10;;;34.40;40.20;;;;;;5011151;28;20861;-47
2022/09/06 12:03:54;;;;;;;6.35;3.38;;;34.50;39.10;;;;;;5002910;28;20431;-48
2022/09/06 12:06:31;;;;;;;8.70;4.03;;;34.80;38.60;;;;;;5011061;28;20201;-51
2022/09/06 12:08:57;;;;;;;4.27;3.87;;;34.70;38.60;;;;;;5010691;28;20452;-47
2022/09/06 12:11:34;;;;;;;7.93;4.43;;;34.80;38.80;;;;;;5008436;28;20551;-47
2022/09/06 12:14:02;;;;;;;5.40;4.00;;;34.80;38.70;;;;;;5009769;28;20448;-51
2022/09/06 12:17:03;;;;;;;7.30;3.90;;;34.60;39.10;;;;;;5007407;28;20440;-51
2022/09/06 12:19:53;;;;;;;3.80;3.43;;;34.90;38.30;;;;;;5000220;28;20979;-51
2022/09/06 12:24:56;;;;;;;5.13;4.07;;;34.90;38.30;;;;;;5016762;28;20452;-47
2022/09/06 12:27:24;;;;;;;8.70;4.00;;;35.10;37.80;;;;;;5013488;28;20451;-48
2022/09/06 12:29:59;;;;;;;6.77;4.07;;;35.20;37.40;;;;;;5009622;28;20983;-49
2022/09/06 12:32:30;;;;;;;8.90;4.53;;;35.60;37.30;;;;;;5013255;28;20444;-52
2022/09/06 12:34:57;;;;;;;7.37;4.13;;;35.60;36.40;;;;;;5007469;28;20471;-51
2022/09/06 12:37:48;;;;;;;9.20;3.63;;;35.20;36.40;;;;;;5013074;28;20475;-52
2022/09/06 12:40:13;;;;;;;6.93;4.40;;;35.30;36.70;;;;;;5012428;28;20484;-51
2022/09/06 12:42:42;;;;;;;14.10;4.40;;;35.20;36.90;;;;;;5006695;28;20917;-50
2022/09/06 12:45:10;;;;;;;11.77;4.37;;;34.80;37.20;;;;;;5010967;28;20193;-51
2022/09/06 12:47:38;;;;;;;7.13;4.03;;;34.80;37.20;;;;;;5010551;28;20536;-50
2022/09/06 12:50:13;;;;;;;6.07;4.30;;;34.80;40.80;;;;;;5008336;28;20453;-51
2022/09/06 12:52:48;;;;;;;7.00;4.53;;;34.80;41.20;;;;;;5009440;28;20952;-52
2022/09/06 12:55:43;;;;;;;6.83;4.97;;;34.70;43.50;;;;;;5012192;28;20527;-49
2022/09/06 12:58:11;;;;;;;14.43;5.93;;;34.40;45.00;;;;;;4996880;28;20467;-49
2022/09/06 13:00:47;;;;;;;8.40;4.60;;;34.30;46.40;;;;;;5012451;28;20995;-53
2022/09/06 13:03:31;;;;;;;7.93;4.77;;;34.20;46.80;;;;;;5012431;28;20514;-52
2022/09/06 13:06:01;;;;;;;4.17;3.67;;;34.00;48.50;;;;;;5005238;28;20463;-52
2022/09/06 13:08:35;;;;;;;7.50;3.77;;;33.90;45.00;;;;;;5012213;28;21021;-52